sensor_id;sensor_type;location;lat;lon;timestamp;temperature;humidity
56322;DHT22;42227;6.376;-10.782;2023-11-25T00:02:25;29.70;1.00
56322;DHT22;42227;6.376;-10.782;2023-11-25T00:04:54;29.60;1.00
56322;DHT22;42227;6.376;-10.782;2023-11-25T00:07:22;29.70;1.00
56322;DHT22;42227;6.376;-10.782;2023-11-25T00:09:51;29.60;1.00
56322;DHT22;42227;6.376;-10.782;2023-11-25T00:12:20;29.70;1.00
56322;DHT22;42227;6.376;-10.782;2023-11-25T00:14:48;29.70;1.00
56322;DHT22;42227;6.376;-10.782;2023-11-25T00:17:17;29.70;1.00
56322;DHT22;42227;6.376;-10.782;2023-11-25T00:19:46;29.80;1.00
56322;DHT22;42227;6.376;-10.782;2023-11-25T00:22:14;29.60;1.00
56322;DHT22;42227;6.376;-10.782;2023-11-25T00:24:42;29.60;1.00
56322;DHT22;42227;6.376;-10.782;2023-11-25T00:27:11;29.40;1.00
56322;DHT22;42227;6.376;-10.782;2023-11-25T00:29:39;29.30;1.00
56322;DHT22;42227;6.376;-10.782;2023-11-25T00:32:08;29.30;1.00
56322;DHT22;42227;6.376;-10.782;2023-11-25T00:34:36;29.20;1.00
56322;DHT22;42227;6.376;-10.782;2023-11-25T00:37:05;29.30;1.00
56322;DHT22;42227;6.376;-10.782;2023-11-25T00:39:33;29.50;1.00
56322;DHT22;42227;6.376;-10.782;2023-11-25T00:42:02;29.60;1.00
56322;DHT22;42227;6.376;-10.782;2023-11-25T00:44:30;29.40;1.00
56322;DHT22;42227;6.376;-10.782;2023-11-25T00:46:59;29.50;1.00
56322;DHT22;42227;6.376;-10.782;2023-11-25T00:49:28;29.60;1.00
56322;DHT22;42227;6.376;-10.782;2023-11-25T00:51:56;29.60;1.00
56322;DHT22;42227;6.376;-10.782;2023-11-25T00:54:25;29.60;1.00
56322;DHT22;42227;6.376;-10.782;2023-11-25T00:56:53;29.60;1.00
56322;DHT22;42227;6.376;-10.782;2023-11-25T00:59:22;29.60;1.00
56322;DHT22;42227;6.376;-10.782;2023-11-25T01:01:50;29.40;1.00
56322;DHT22;42227;6.376;-10.782;2023-11-25T01:04:19;29.20;1.00
56322;DHT22;42227;6.376;-10.782;2023-11-25T01:06:47;29.10;1.00
56322;DHT22;42227;6.376;-10.782;2023-11-25T01:09:16;29.10;1.00
56322;DHT22;42227;6.376;-10.782;2023-11-25T01:11:48;29.20;1.00
56322;DHT22;42227;6.376;-10.782;2023-11-25T01:14:16;29.30;1.00
56322;DHT22;42227;6.376;-10.782;2023-11-25T01:16:45;29.50;1.00
56322;DHT22;42227;6.376;-10.782;2023-11-25T01:19:14;29.50;1.00
56322;DHT22;42227;6.376;-10.782;2023-11-25T01:21:42;29.60;1.00
56322;DHT22;42227;6.376;-10.782;2023-11-25T01:24:11;29.50;1.00
56322;DHT22;42227;6.376;-10.782;2023-11-25T01:26:39;29.30;1.00
56322;DHT22;42227;6.376;-10.782;2023-11-25T01:29:08;29.20;1.00
56322;DHT22;42227;6.376;-10.782;2023-11-25T01:31:36;29.10;1.00
56322;DHT22;42227;6.376;-10.782;2023-11-25T01:34:06;29.30;1.00
56322;DHT22;42227;6.376;-10.782;2023-11-25T01:36:34;29.50;1.00
56322;DHT22;42227;6.376;-10.782;2023-11-25T01:39:03;29.50;1.00
56322;DHT22;42227;6.376;-10.782;2023-11-25T01:41:31;29.60;1.00
56322;DHT22;42227;6.376;-10.782;2023-11-25T01:44:00;29.50;1.00
56322;DHT22;42227;6.376;-10.782;2023-11-25T01:46:36;29.60;1.00
56322;DHT22;42227;6.376;-10.782;2023-11-25T01:49:13;29.60;1.00
56322;DHT22;42227;6.376;-10.782;2023-11-25T01:51:45;29.70;1.00
56322;DHT22;42227;6.376;-10.782;2023-11-25T01:54:14;29.60;1.00
56322;DHT22;42227;6.376;-10.782;2023-11-25T01:56:48;29.50;1.00
56322;DHT22;42227;6.376;-10.782;2023-11-25T01:59:20;29.30;1.00
56322;DHT22;42227;6.376;-10.782;2023-11-25T02:01:49;29.20;1.00
56322;DHT22;42227;6.376;-10.782;2023-11-25T02:04:18;29.10;1.00
56322;DHT22;42227;6.376;-10.782;2023-11-25T02:06:47;28.80;99.90
56322;DHT22;42227;6.376;-10.782;2023-11-25T02:09:15;28.50;99.90
56322;DHT22;42227;6.376;-10.782;2023-11-25T02:11:57;28.70;99.90
56322;DHT22;42227;6.376;-10.782;2023-11-25T02:14:26;28.70;99.90
56322;DHT22;42227;6.376;-10.782;2023-11-25T02:16:55;28.70;99.90
56322;DHT22;42227;6.376;-10.782;2023-11-25T02:19:25;28.70;99.90
56322;DHT22;42227;6.376;-10.782;2023-11-25T02:21:53;28.30;99.90
56322;DHT22;42227;6.376;-10.782;2023-11-25T02:24:22;27.90;99.90
56322;DHT22;42227;6.376;-10.782;2023-11-25T02:26:57;27.70;1.00
56322;DHT22;42227;6.376;-10.782;2023-11-25T02:29:27;27.70;99.90
56322;DHT22;42227;6.376;-10.782;2023-11-25T02:31:56;28.00;26.90
56322;DHT22;42227;6.376;-10.782;2023-11-25T02:34:25;28.00;1.00
56322;DHT22;42227;6.376;-10.782;2023-11-25T02:36:55;27.70;1.00
56322;DHT22;42227;6.376;-10.782;2023-11-25T02:39:24;27.70;56.90
56322;DHT22;42227;6.376;-10.782;2023-11-25T02:41:53;27.70;35.10
56322;DHT22;42227;6.376;-10.782;2023-11-25T02:44:21;27.60;1.00
56322;DHT22;42227;6.376;-10.782;2023-11-25T02:46:49;27.40;99.90
56322;DHT22;42227;6.376;-10.782;2023-11-25T02:49:19;27.20;99.90
56322;DHT22;42227;6.376;-10.782;2023-11-25T02:51:51;27.10;99.90
56322;DHT22;42227;6.376;-10.782;2023-11-25T02:54:21;27.30;1.00
56322;DHT22;42227;6.376;-10.782;2023-11-25T02:56:50;27.60;99.90
56322;DHT22;42227;6.376;-10.782;2023-11-25T02:59:18;27.80;99.90
56322;DHT22;42227;6.376;-10.782;2023-11-25T03:01:50;27.60;99.90
56322;DHT22;42227;6.376;-10.782;2023-11-25T03:04:19;27.30;99.90
56322;DHT22;42227;6.376;-10.782;2023-11-25T03:06:47;27.30;99.90
56322;DHT22;42227;6.376;-10.782;2023-11-25T03:09:16;27.10;1.00
56322;DHT22;42227;6.376;-10.782;2023-11-25T03:11:46;27.00;1.00
56322;DHT22;42227;6.376;-10.782;2023-11-25T03:14:15;27.20;1.00
56322;DHT22;42227;6.376;-10.782;2023-11-25T03:16:47;27.10;99.90
56322;DHT22;42227;6.376;-10.782;2023-11-25T03:19:15;26.90;1.00
56322;DHT22;42227;6.376;-10.782;2023-11-25T03:21:44;27.20;90.30
56322;DHT22;42227;6.376;-10.782;2023-11-25T03:24:12;27.60;99.90
56322;DHT22;42227;6.376;-10.782;2023-11-25T03:26:41;27.80;99.90
56322;DHT22;42227;6.376;-10.782;2023-11-25T03:29:10;27.80;99.90
56322;DHT22;42227;6.376;-10.782;2023-11-25T03:31:42;27.70;20.10
56322;DHT22;42227;6.376;-10.782;2023-11-25T03:34:11;27.50;99.90
56322;DHT22;42227;6.376;-10.782;2023-11-25T03:36:40;27.30;91.90
56322;DHT22;42227;6.376;-10.782;2023-11-25T03:39:09;27.20;99.90
56322;DHT22;42227;6.376;-10.782;2023-11-25T03:41:37;27.20;99.90
56322;DHT22;42227;6.376;-10.782;2023-11-25T03:44:06;27.20;58.20
56322;DHT22;42227;6.376;-10.782;2023-11-25T03:46:35;27.30;1.00
56322;DHT22;42227;6.376;-10.782;2023-11-25T03:49:03;27.50;1.40
56322;DHT22;42227;6.376;-10.782;2023-11-25T03:51:32;27.70;1.00
56322;DHT22;42227;6.376;-10.782;2023-11-25T03:54:00;27.30;1.00
56322;DHT22;42227;6.376;-10.782;2023-11-25T03:56:28;27.10;21.90
56322;DHT22;42227;6.376;-10.782;2023-11-25T03:58:57;26.90;99.90
56322;DHT22;42227;6.376;-10.782;2023-11-25T04:01:25;26.80;99.90
56322;DHT22;42227;6.376;-10.782;2023-11-25T04:03:54;26.90;1.00
56322;DHT22;42227;6.376;-10.782;2023-11-25T04:06:22;26.90;99.90
56322;DHT22;42227;6.376;-10.782;2023-11-25T04:08:51;27.00;99.90
56322;DHT22;42227;6.376;-10.782;2023-11-25T04:11:19;27.00;99.90
56322;DHT22;42227;6.376;-10.782;2023-11-25T04:13:47;27.10;60.80
56322;DHT22;42227;6.376;-10.782;2023-11-25T04:16:16;26.90;99.90
56322;DHT22;42227;6.376;-10.782;2023-11-25T04:18:45;26.80;99.90
56322;DHT22;42227;6.376;-10.782;2023-11-25T04:21:14;26.70;99.90
56322;DHT22;42227;6.376;-10.782;2023-11-25T04:23:42;26.70;99.90
56322;DHT22;42227;6.376;-10.782;2023-11-25T04:26:11;26.90;99.90
56322;DHT22;42227;6.376;-10.782;2023-11-25T04:28:39;27.00;6.40
56322;DHT22;42227;6.376;-10.782;2023-11-25T04:31:07;26.90;19.70
56322;DHT22;42227;6.376;-10.782;2023-11-25T04:33:36;26.70;71.30
56322;DHT22;42227;6.376;-10.782;2023-11-25T04:36:05;26.60;99.90
56322;DHT22;42227;6.376;-10.782;2023-11-25T04:38:34;26.50;1.00
56322;DHT22;42227;6.376;-10.782;2023-11-25T04:41:02;26.50;1.00
56322;DHT22;42227;6.376;-10.782;2023-11-25T04:43:31;26.70;1.00
56322;DHT22;42227;6.376;-10.782;2023-11-25T04:45:59;26.70;99.90
56322;DHT22;42227;6.376;-10.782;2023-11-25T04:48:27;26.70;99.90
56322;DHT22;42227;6.376;-10.782;2023-11-25T04:50:56;26.80;71.00
56322;DHT22;42227;6.376;-10.782;2023-11-25T04:53:24;26.70;99.90
56322;DHT22;42227;6.376;-10.782;2023-11-25T04:55:53;26.60;99.90
56322;DHT22;42227;6.376;-10.782;2023-11-25T04:58:21;26.40;99.90
56322;DHT22;42227;6.376;-10.782;2023-11-25T05:00:50;26.40;1.00
56322;DHT22;42227;6.376;-10.782;2023-11-25T05:03:18;26.50;1.00
56322;DHT22;42227;6.376;-10.782;2023-11-25T05:05:47;26.60;99.90
56322;DHT22;42227;6.376;-10.782;2023-11-25T05:08:15;26.80;99.90
56322;DHT22;42227;6.376;-10.782;2023-11-25T05:10:43;26.70;94.90
56322;DHT22;42227;6.376;-10.782;2023-11-25T05:13:12;26.70;99.90
56322;DHT22;42227;6.376;-10.782;2023-11-25T05:15:43;26.70;99.90
56322;DHT22;42227;6.376;-10.782;2023-11-25T05:18:11;26.70;99.90
56322;DHT22;42227;6.376;-10.782;2023-11-25T05:20:40;26.70;1.00
56322;DHT22;42227;6.376;-10.782;2023-11-25T05:23:08;26.60;1.00
56322;DHT22;42227;6.376;-10.782;2023-11-25T05:25:36;26.80;99.90
56322;DHT22;42227;6.376;-10.782;2023-11-25T05:28:05;26.80;99.90
56322;DHT22;42227;6.376;-10.782;2023-11-25T05:30:33;27.00;99.90
56322;DHT22;42227;6.376;-10.782;2023-11-25T05:33:02;26.90;99.90
56322;DHT22;42227;6.376;-10.782;2023-11-25T05:35:30;26.80;99.90
56322;DHT22;42227;6.376;-10.782;2023-11-25T05:37:59;26.70;1.00
56322;DHT22;42227;6.376;-10.782;2023-11-25T05:40:27;26.60;55.60
56322;DHT22;42227;6.376;-10.782;2023-11-25T05:42:56;26.80;99.90
56322;DHT22;42227;6.376;-10.782;2023-11-25T05:45:24;26.90;1.00
56322;DHT22;42227;6.376;-10.782;2023-11-25T05:47:53;27.10;99.90
56322;DHT22;42227;6.376;-10.782;2023-11-25T05:50:22;27.10;99.30
56322;DHT22;42227;6.376;-10.782;2023-11-25T05:52:50;26.90;75.90
56322;DHT22;42227;6.376;-10.782;2023-11-25T05:55:19;26.80;99.90
56322;DHT22;42227;6.376;-10.782;2023-11-25T05:57:48;26.70;99.90
56322;DHT22;42227;6.376;-10.782;2023-11-25T06:00:16;26.70;99.90
56322;DHT22;42227;6.376;-10.782;2023-11-25T06:02:45;26.80;99.90
56322;DHT22;42227;6.376;-10.782;2023-11-25T06:05:13;26.80;99.90
56322;DHT22;42227;6.376;-10.782;2023-11-25T06:07:42;26.90;99.90
56322;DHT22;42227;6.376;-10.782;2023-11-25T06:10:10;27.10;99.90
56322;DHT22;42227;6.376;-10.782;2023-11-25T06:12:39;26.90;97.60
56322;DHT22;42227;6.376;-10.782;2023-11-25T06:15:08;26.80;99.90
56322;DHT22;42227;6.376;-10.782;2023-11-25T06:17:36;26.70;99.90
56322;DHT22;42227;6.376;-10.782;2023-11-25T06:20:06;26.70;1.00
56322;DHT22;42227;6.376;-10.782;2023-11-25T06:22:34;26.80;1.00
56322;DHT22;42227;6.376;-10.782;2023-11-25T06:25:03;27.10;99.90
56322;DHT22;42227;6.376;-10.782;2023-11-25T06:27:31;27.10;99.90
56322;DHT22;42227;6.376;-10.782;2023-11-25T06:29:59;27.10;56.10
56322;DHT22;42227;6.376;-10.782;2023-11-25T06:32:28;27.10;1.00
56322;DHT22;42227;6.376;-10.782;2023-11-25T06:34:57;27.10;1.00
56322;DHT22;42227;6.376;-10.782;2023-11-25T06:37:25;27.00;1.00
56322;DHT22;42227;6.376;-10.782;2023-11-25T06:39:54;26.70;31.40
56322;DHT22;42227;6.376;-10.782;2023-11-25T06:42:22;26.70;99.90
56322;DHT22;42227;6.376;-10.782;2023-11-25T06:44:51;26.60;56.30
56322;DHT22;42227;6.376;-10.782;2023-11-25T06:47:19;26.80;48.70
56322;DHT22;42227;6.376;-10.782;2023-11-25T06:49:48;26.90;1.00
56322;DHT22;42227;6.376;-10.782;2023-11-25T06:52:17;27.10;99.90
56322;DHT22;42227;6.376;-10.782;2023-11-25T06:54:45;27.20;99.90
56322;DHT22;42227;6.376;-10.782;2023-11-25T06:57:14;27.00;99.90
56322;DHT22;42227;6.376;-10.782;2023-11-25T06:59:42;26.90;1.00
56322;DHT22;42227;6.376;-10.782;2023-11-25T07:02:11;26.80;1.00
56322;DHT22;42227;6.376;-10.782;2023-11-25T07:04:40;26.60;99.90
56322;DHT22;42227;6.376;-10.782;2023-11-25T07:07:08;26.70;99.90
56322;DHT22;42227;6.376;-10.782;2023-11-25T07:09:37;26.70;99.90
56322;DHT22;42227;6.376;-10.782;2023-11-25T07:12:05;26.90;99.90
56322;DHT22;42227;6.376;-10.782;2023-11-25T07:14:34;26.80;51.50
56322;DHT22;42227;6.376;-10.782;2023-11-25T07:17:02;26.60;99.90
56322;DHT22;42227;6.376;-10.782;2023-11-25T07:19:31;26.60;99.90
56322;DHT22;42227;6.376;-10.782;2023-11-25T07:22:00;26.60;1.00
56322;DHT22;42227;6.376;-10.782;2023-11-25T07:24:28;26.70;80.30
56322;DHT22;42227;6.376;-10.782;2023-11-25T07:26:56;26.70;1.00
56322;DHT22;42227;6.376;-10.782;2023-11-25T07:29:25;26.80;99.90
56322;DHT22;42227;6.376;-10.782;2023-11-25T07:31:53;27.00;99.90
56322;DHT22;42227;6.376;-10.782;2023-11-25T07:34:22;27.20;99.90
56322;DHT22;42227;6.376;-10.782;2023-11-25T07:36:50;27.10;99.90
56322;DHT22;42227;6.376;-10.782;2023-11-25T07:39:19;27.00;99.90
56322;DHT22;42227;6.376;-10.782;2023-11-25T07:41:50;26.90;99.90
56322;DHT22;42227;6.376;-10.782;2023-11-25T07:44:18;26.90;99.90
56322;DHT22;42227;6.376;-10.782;2023-11-25T07:46:47;26.90;99.90
56322;DHT22;42227;6.376;-10.782;2023-11-25T07:49:16;27.10;99.90
56322;DHT22;42227;6.376;-10.782;2023-11-25T07:51:47;27.20;99.90
56322;DHT22;42227;6.376;-10.782;2023-11-25T07:54:17;27.30;15.10
56322;DHT22;42227;6.376;-10.782;2023-11-25T07:56:46;27.30;1.00
56322;DHT22;42227;6.376;-10.782;2023-11-25T07:59:14;27.00;95.10
56322;DHT22;42227;6.376;-10.782;2023-11-25T08:01:44;26.80;99.90
56322;DHT22;42227;6.376;-10.782;2023-11-25T08:04:13;26.80;99.90
56322;DHT22;42227;6.376;-10.782;2023-11-25T08:06:41;26.90;1.00
56322;DHT22;42227;6.376;-10.782;2023-11-25T08:09:10;26.90;1.00
56322;DHT22;42227;6.376;-10.782;2023-11-25T08:11:38;27.10;1.00
56322;DHT22;42227;6.376;-10.782;2023-11-25T08:14:07;26.90;1.00
56322;DHT22;42227;6.376;-10.782;2023-11-25T08:16:36;27.20;21.80
56322;DHT22;42227;6.376;-10.782;2023-11-25T08:19:04;27.50;99.90
56322;DHT22;42227;6.376;-10.782;2023-11-25T08:21:33;27.60;99.90
56322;DHT22;42227;6.376;-10.782;2023-11-25T08:24:02;27.60;81.00
56322;DHT22;42227;6.376;-10.782;2023-11-25T08:26:30;27.40;99.90
56322;DHT22;42227;6.376;-10.782;2023-11-25T08:29:00;27.30;99.90
56322;DHT22;42227;6.376;-10.782;2023-11-25T08:31:29;27.50;99.90
56322;DHT22;42227;6.376;-10.782;2023-11-25T08:34:05;27.40;99.90
56322;DHT22;42227;6.376;-10.782;2023-11-25T08:36:34;27.50;99.90
56322;DHT22;42227;6.376;-10.782;2023-11-25T08:39:03;27.50;99.90
56322;DHT22;42227;6.376;-10.782;2023-11-25T08:41:31;27.60;99.90
56322;DHT22;42227;6.376;-10.782;2023-11-25T08:44:00;27.60;99.90
56322;DHT22;42227;6.376;-10.782;2023-11-25T08:46:29;27.50;99.90
56322;DHT22;42227;6.376;-10.782;2023-11-25T08:48:57;27.40;99.90
56322;DHT22;42227;6.376;-10.782;2023-11-25T08:51:26;27.30;99.90
56322;DHT22;42227;6.376;-10.782;2023-11-25T08:53:54;27.30;99.90
56322;DHT22;42227;6.376;-10.782;2023-11-25T08:56:23;27.50;99.90
56322;DHT22;42227;6.376;-10.782;2023-11-25T08:58:51;27.90;53.40
56322;DHT22;42227;6.376;-10.782;2023-11-25T09:01:39;27.90;1.00
56322;DHT22;42227;6.376;-10.782;2023-11-25T09:04:08;27.50;1.00
56322;DHT22;42227;6.376;-10.782;2023-11-25T09:06:36;27.30;1.00
56322;DHT22;42227;6.376;-10.782;2023-11-25T09:09:06;27.00;99.90
56322;DHT22;42227;6.376;-10.782;2023-11-25T09:11:38;26.70;1.00
56322;DHT22;42227;6.376;-10.782;2023-11-25T09:14:07;26.80;1.00
56322;DHT22;42227;6.376;-10.782;2023-11-25T09:16:35;27.10;1.00
56322;DHT22;42227;6.376;-10.782;2023-11-25T09:19:04;27.30;99.90
56322;DHT22;42227;6.376;-10.782;2023-11-25T09:21:33;27.40;99.90
56322;DHT22;42227;6.376;-10.782;2023-11-25T09:24:01;27.20;1.00
56322;DHT22;42227;6.376;-10.782;2023-11-25T09:26:30;27.30;99.90
56322;DHT22;42227;6.376;-10.782;2023-11-25T09:28:58;27.20;99.90
56322;DHT22;42227;6.376;-10.782;2023-11-25T09:31:27;27.10;99.90
56322;DHT22;42227;6.376;-10.782;2023-11-25T09:33:56;26.90;1.00
56322;DHT22;42227;6.376;-10.782;2023-11-25T09:36:25;26.70;66.20
56322;DHT22;42227;6.376;-10.782;2023-11-25T09:38:53;26.80;1.00
56322;DHT22;42227;6.376;-10.782;2023-11-25T09:41:22;26.90;1.00
56322;DHT22;42227;6.376;-10.782;2023-11-25T09:43:51;27.00;99.90
56322;DHT22;42227;6.376;-10.782;2023-11-25T09:46:20;27.10;2.60
56322;DHT22;42227;6.376;-10.782;2023-11-25T09:48:49;27.20;1.00
56322;DHT22;42227;6.376;-10.782;2023-11-25T09:51:22;27.10;99.90
56322;DHT22;42227;6.376;-10.782;2023-11-25T09:53:56;27.00;1.00
56322;DHT22;42227;6.376;-10.782;2023-11-25T09:56:24;27.00;99.90
56322;DHT22;42227;6.376;-10.782;2023-11-25T09:58:53;27.00;1.00
56322;DHT22;42227;6.376;-10.782;2023-11-25T10:01:22;27.10;1.00
56322;DHT22;42227;6.376;-10.782;2023-11-25T10:03:52;27.20;99.90
56322;DHT22;42227;6.376;-10.782;2023-11-25T10:06:22;27.20;99.90
56322;DHT22;42227;6.376;-10.782;2023-11-25T10:08:51;27.20;99.90
56322;DHT22;42227;6.376;-10.782;2023-11-25T10:11:20;27.10;99.90
56322;DHT22;42227;6.376;-10.782;2023-11-25T10:13:49;27.00;99.90
56322;DHT22;42227;6.376;-10.782;2023-11-25T10:16:28;26.80;99.90
56322;DHT22;42227;6.376;-10.782;2023-11-25T10:18:57;26.70;1.00
56322;DHT22;42227;6.376;-10.782;2023-11-25T10:21:25;26.90;1.00
56322;DHT22;42227;6.376;-10.782;2023-11-25T10:23:54;26.90;1.00
56322;DHT22;42227;6.376;-10.782;2023-11-25T10:26:23;26.70;21.80
56322;DHT22;42227;6.376;-10.782;2023-11-25T10:28:55;26.50;1.00
56322;DHT22;42227;6.376;-10.782;2023-11-25T10:31:23;26.50;99.90
56322;DHT22;42227;6.376;-10.782;2023-11-25T10:33:55;26.50;1.00
56322;DHT22;42227;6.376;-10.782;2023-11-25T10:36:25;26.50;1.00
56322;DHT22;42227;6.376;-10.782;2023-11-25T10:38:53;26.50;1.00
56322;DHT22;42227;6.376;-10.782;2023-11-25T10:41:23;26.50;99.90
56322;DHT22;42227;6.376;-10.782;2023-11-25T10:43:52;26.60;1.00
56322;DHT22;42227;6.376;-10.782;2023-11-25T10:46:36;26.60;1.00
56322;DHT22;42227;6.376;-10.782;2023-11-25T10:49:07;26.70;99.90
56322;DHT22;42227;6.376;-10.782;2023-11-25T10:51:39;26.70;99.90
56322;DHT22;42227;6.376;-10.782;2023-11-25T10:54:10;26.50;1.00
56322;DHT22;42227;6.376;-10.782;2023-11-25T10:56:39;26.40;99.90
56322;DHT22;42227;6.376;-10.782;2023-11-25T10:59:11;26.50;99.90
56322;DHT22;42227;6.376;-10.782;2023-11-25T11:01:42;26.70;1.00
56322;DHT22;42227;6.376;-10.782;2023-11-25T11:04:17;26.70;1.00
56322;DHT22;42227;6.376;-10.782;2023-11-25T11:06:51;26.50;99.90
56322;DHT22;42227;6.376;-10.782;2023-11-25T11:09:35;26.20;99.90
56322;DHT22;42227;6.376;-10.782;2023-11-25T11:12:10;26.00;1.00
56322;DHT22;42227;6.376;-10.782;2023-11-25T11:14:53;26.00;87.40
56322;DHT22;42227;6.376;-10.782;2023-11-25T11:17:36;25.90;99.90
56322;DHT22;42227;6.376;-10.782;2023-11-25T11:20:11;25.90;1.00
56322;DHT22;42227;6.376;-10.782;2023-11-25T11:22:41;26.20;1.00
56322;DHT22;42227;6.376;-10.782;2023-11-25T11:25:25;26.30;10.80
56322;DHT22;42227;6.376;-10.782;2023-11-25T11:33:44;25.90;99.90
56322;DHT22;42227;6.376;-10.782;2023-11-25T11:36:21;26.00;99.90
56322;DHT22;42227;6.376;-10.782;2023-11-25T11:38:50;26.00;1.00
56322;DHT22;42227;6.376;-10.782;2023-11-25T11:44:00;26.30;99.90
56322;DHT22;42227;6.376;-10.782;2023-11-25T11:46:30;26.30;99.90
56322;DHT22;42227;6.376;-10.782;2023-11-25T11:49:02;26.20;91.80
56322;DHT22;42227;6.376;-10.782;2023-11-25T11:51:31;26.20;20.60
56322;DHT22;42227;6.376;-10.782;2023-11-25T11:54:29;26.00;17.10
56322;DHT22;42227;6.376;-10.782;2023-11-25T12:00:00;26.00;12.10
56322;DHT22;42227;6.376;-10.782;2023-11-25T12:02:31;25.70;36.70
56322;DHT22;42227;6.376;-10.782;2023-11-25T12:05:00;25.70;99.90
56322;DHT22;42227;6.376;-10.782;2023-11-25T12:07:30;25.60;99.90
56322;DHT22;42227;6.376;-10.782;2023-11-25T12:09:59;25.30;99.90
56322;DHT22;42227;6.376;-10.782;2023-11-25T12:12:28;25.70;1.00
56322;DHT22;42227;6.376;-10.782;2023-11-25T12:14:56;25.80;1.00
56322;DHT22;42227;6.376;-10.782;2023-11-25T12:17:25;25.70;99.90
56322;DHT22;42227;6.376;-10.782;2023-11-25T12:19:55;25.90;99.90
56322;DHT22;42227;6.376;-10.782;2023-11-25T12:22:23;25.90;99.90
56322;DHT22;42227;6.376;-10.782;2023-11-25T12:24:52;26.10;32.40
56322;DHT22;42227;6.376;-10.782;2023-11-25T12:27:22;26.20;1.00
56322;DHT22;42227;6.376;-10.782;2023-11-25T12:29:53;26.00;55.30
56322;DHT22;42227;6.376;-10.782;2023-11-25T12:32:23;26.10;99.90
56322;DHT22;42227;6.376;-10.782;2023-11-25T12:34:52;26.10;99.90
56322;DHT22;42227;6.376;-10.782;2023-11-25T12:37:20;26.20;99.90
56322;DHT22;42227;6.376;-10.782;2023-11-25T12:39:49;26.30;1.00
56322;DHT22;42227;6.376;-10.782;2023-11-25T12:42:24;26.30;96.30
56322;DHT22;42227;6.376;-10.782;2023-11-25T12:44:53;26.30;8.00
56322;DHT22;42227;6.376;-10.782;2023-11-25T12:47:21;26.00;1.00
56322;DHT22;42227;6.376;-10.782;2023-11-25T12:50:04;25.90;1.00
56322;DHT22;42227;6.376;-10.782;2023-11-25T12:52:33;26.10;1.00
56322;DHT22;42227;6.376;-10.782;2023-11-25T12:55:01;26.20;99.90
56322;DHT22;42227;6.376;-10.782;2023-11-25T12:57:30;26.20;1.00
56322;DHT22;42227;6.376;-10.782;2023-11-25T13:00:08;26.30;99.90
56322;DHT22;42227;6.376;-10.782;2023-11-25T13:02:44;26.50;99.90
56322;DHT22;42227;6.376;-10.782;2023-11-25T13:05:19;26.60;24.50
56322;DHT22;42227;6.376;-10.782;2023-11-25T13:07:48;26.70;99.90
56322;DHT22;42227;6.376;-10.782;2023-11-25T13:10:16;26.70;99.90
56322;DHT22;42227;6.376;-10.782;2023-11-25T13:12:45;26.70;99.90
56322;DHT22;42227;6.376;-10.782;2023-11-25T13:15:13;26.60;99.90
56322;DHT22;42227;6.376;-10.782;2023-11-25T13:17:42;26.80;99.90
56322;DHT22;42227;6.376;-10.782;2023-11-25T13:20:12;26.90;99.90
56322;DHT22;42227;6.376;-10.782;2023-11-25T13:22:41;27.10;1.00
56322;DHT22;42227;6.376;-10.782;2023-11-25T13:25:09;27.10;1.00
56322;DHT22;42227;6.376;-10.782;2023-11-25T13:27:38;27.00;99.90
56322;DHT22;42227;6.376;-10.782;2023-11-25T13:30:07;27.10;99.90
56322;DHT22;42227;6.376;-10.782;2023-11-25T13:32:36;27.10;99.90
56322;DHT22;42227;6.376;-10.782;2023-11-25T13:35:05;27.20;99.90
56322;DHT22;42227;6.376;-10.782;2023-11-25T13:37:34;27.30;67.40
56322;DHT22;42227;6.376;-10.782;2023-11-25T13:40:06;27.50;4.50
56322;DHT22;42227;6.376;-10.782;2023-11-25T13:42:34;27.70;99.90
56322;DHT22;42227;6.376;-10.782;2023-11-25T13:45:03;27.80;99.90
56322;DHT22;42227;6.376;-10.782;2023-11-25T13:47:32;27.60;99.90
56322;DHT22;42227;6.376;-10.782;2023-11-25T13:50:01;27.50;99.90
56322;DHT22;42227;6.376;-10.782;2023-11-25T13:52:43;27.50;99.90
56322;DHT22;42227;6.376;-10.782;2023-11-25T13:55:12;27.40;1.00
56322;DHT22;42227;6.376;-10.782;2023-11-25T13:57:41;27.20;99.90
56322;DHT22;42227;6.376;-10.782;2023-11-25T14:00:11;27.10;99.90
56322;DHT22;42227;6.376;-10.782;2023-11-25T14:02:39;26.90;99.90
56322;DHT22;42227;6.376;-10.782;2023-11-25T14:05:08;26.90;40.00
56322;DHT22;42227;6.376;-10.782;2023-11-25T14:07:37;26.90;1.00
56322;DHT22;42227;6.376;-10.782;2023-11-25T14:10:05;26.70;1.00
56322;DHT22;42227;6.376;-10.782;2023-11-25T14:12:35;26.80;99.90
56322;DHT22;42227;6.376;-10.782;2023-11-25T14:15:07;26.60;99.90
56322;DHT22;42227;6.376;-10.782;2023-11-25T14:17:39;26.50;99.90
56322;DHT22;42227;6.376;-10.782;2023-11-25T14:20:08;26.60;99.90
56322;DHT22;42227;6.376;-10.782;2023-11-25T14:22:38;26.60;99.90
56322;DHT22;42227;6.376;-10.782;2023-11-25T14:25:07;26.50;99.90
56322;DHT22;42227;6.376;-10.782;2023-11-25T14:27:35;26.50;1.00
56322;DHT22;42227;6.376;-10.782;2023-11-25T14:30:04;26.50;99.90
56322;DHT22;42227;6.376;-10.782;2023-11-25T14:32:33;26.60;1.00
56322;DHT22;42227;6.376;-10.782;2023-11-25T14:35:02;26.60;1.00
56322;DHT22;42227;6.376;-10.782;2023-11-25T14:37:31;26.70;1.00
56322;DHT22;42227;6.376;-10.782;2023-11-25T14:40:00;26.80;1.00
56322;DHT22;42227;6.376;-10.782;2023-11-25T14:42:29;27.00;99.90
56322;DHT22;42227;6.376;-10.782;2023-11-25T14:45:01;26.90;99.90
56322;DHT22;42227;6.376;-10.782;2023-11-25T14:47:30;26.50;99.90
56322;DHT22;42227;6.376;-10.782;2023-11-25T14:49:59;26.30;1.00
56322;DHT22;42227;6.376;-10.782;2023-11-25T14:52:28;26.20;13.50
56322;DHT22;42227;6.376;-10.782;2023-11-25T14:54:57;26.20;1.00
56322;DHT22;42227;6.376;-10.782;2023-11-25T14:57:26;26.30;1.00
56322;DHT22;42227;6.376;-10.782;2023-11-25T14:59:54;26.60;1.00
56322;DHT22;42227;6.376;-10.782;2023-11-25T15:02:23;26.90;99.90
56322;DHT22;42227;6.376;-10.782;2023-11-25T15:04:52;26.80;99.90
56322;DHT22;42227;6.376;-10.782;2023-11-25T15:07:21;26.50;1.00
56322;DHT22;42227;6.376;-10.782;2023-11-25T15:09:49;26.40;5.30
56322;DHT22;42227;6.376;-10.782;2023-11-25T15:12:18;26.30;99.90
56322;DHT22;42227;6.376;-10.782;2023-11-25T15:14:46;26.30;99.90
56322;DHT22;42227;6.376;-10.782;2023-11-25T15:17:18;26.30;40.40
56322;DHT22;42227;6.376;-10.782;2023-11-25T15:19:47;26.50;27.30
56322;DHT22;42227;6.376;-10.782;2023-11-25T15:22:15;26.70;1.00
56322;DHT22;42227;6.376;-10.782;2023-11-25T15:24:44;26.90;99.90
56322;DHT22;42227;6.376;-10.782;2023-11-25T15:27:13;26.70;99.90
56322;DHT22;42227;6.376;-10.782;2023-11-25T15:29:41;26.60;1.00
56322;DHT22;42227;6.376;-10.782;2023-11-25T15:32:10;26.50;99.90
56322;DHT22;42227;6.376;-10.782;2023-11-25T15:34:39;26.40;1.00
56322;DHT22;42227;6.376;-10.782;2023-11-25T15:37:08;26.50;1.00
56322;DHT22;42227;6.376;-10.782;2023-11-25T15:39:36;26.60;99.90
56322;DHT22;42227;6.376;-10.782;2023-11-25T15:42:05;26.80;99.90
56322;DHT22;42227;6.376;-10.782;2023-11-25T15:44:34;26.90;99.90
56322;DHT22;42227;6.376;-10.782;2023-11-25T15:47:02;26.90;53.20
56322;DHT22;42227;6.376;-10.782;2023-11-25T15:49:31;26.90;99.90